createdAt,value
2017-08-26T05:30:09.919Z,65
2017-08-26T05:31:23.507Z,65
2017-08-26T05:32:37.783Z,70
2017-08-26T05:33:51.450Z,70
2017-08-26T05:35:18.314Z,75
2017-08-26T05:36:31.910Z,75
2017-08-26T05:37:46.418Z,70
2017-08-26T05:39:00.066Z,70
2017-08-26T05:40:47.371Z,70
2017-08-26T05:42:01.051Z,65
2017-08-26T05:43:14.954Z,70
2017-08-26T05:44:28.827Z,75
2017-08-26T05:45:43.004Z,75
2017-08-26T05:46:57.641Z,70
2017-08-26T05:48:11.443Z,70
2017-08-26T05:49:48.718Z,75
2017-08-26T05:51:02.494Z,70
2017-08-26T05:52:16.442Z,75
2017-08-26T05:53:30.389Z,65
2017-08-26T05:54:44.174Z,65
2017-08-26T05:55:58.045Z,60
2017-08-26T05:57:11.734Z,75
2017-08-26T05:58:25.759Z,95
2017-08-26T05:59:39.682Z,90
2017-08-26T06:00:53.789Z,100
2017-08-26T06:02:07.407Z,105
2017-08-26T06:03:31.967Z,115
2017-08-26T06:04:45.564Z,115
2017-08-26T06:05:59.466Z,120
2017-08-26T06:07:13.274Z,120
2017-08-26T06:08:27.143Z,120
2017-08-26T06:09:41.052Z,125
2017-08-26T06:10:54.970Z,125
2017-08-26T06:12:08.754Z,130
2017-08-26T06:13:22.571Z,130
2017-08-26T06:14:36.662Z,135
2017-08-26T06:15:50.822Z,140
2017-08-26T06:17:04.430Z,140
2017-08-26T06:18:42.901Z,155
2017-08-26T06:19:56.844Z,155
2017-08-26T06:21:10.846Z,155
2017-08-26T06:22:24.634Z,160
2017-08-26T06:23:39.213Z,165
2017-08-26T06:24:53.735Z,165
2017-08-26T06:26:07.357Z,165
2017-08-26T06:27:35.063Z,165
2017-08-26T06:28:48.673Z,170
2017-08-26T06:30:02.748Z,170
2017-08-26T06:31:16.421Z,175
2017-08-26T06:32:30.253Z,175
2017-08-26T06:33:44.473Z,175
2017-08-26T06:34:58.401Z,180
2017-08-26T06:36:12.230Z,180
2017-08-26T06:37:26.043Z,180
2017-08-26T06:38:39.646Z,180
2017-08-26T06:39:53.777Z,185
2017-08-26T06:41:07.441Z,185
2017-08-26T06:42:40.091Z,185
2017-08-26T06:43:53.818Z,185
2017-08-26T06:45:07.445Z,185
2017-08-26T06:46:42.525Z,190
2017-08-26T06:47:56.618Z,190
2017-08-26T06:49:10.845Z,190
2017-08-26T06:50:34.742Z,190
2017-08-26T06:51:48.369Z,195
2017-08-26T06:53:02.648Z,195
2017-08-26T06:54:16.284Z,195
2017-08-26T06:55:30.773Z,195
2017-08-26T06:56:44.553Z,195
2017-08-26T06:57:58.401Z,195
2017-08-26T06:59:12.386Z,195
2017-08-26T07:00:26.662Z,205
2017-08-26T07:01:40.433Z,200
2017-08-26T07:02:54.638Z,200
2017-08-26T07:04:08.584Z,200
2017-08-26T07:05:22.509Z,195
2017-08-26T07:06:36.157Z,195
2017-08-26T07:07:50.116Z,200
2017-08-26T07:09:03.743Z,200
2017-08-26T07:10:17.556Z,200
2017-08-26T07:11:31.528Z,200
2017-08-26T07:12:45.410Z,200
2017-08-26T07:13:59.002Z,200
2017-08-26T07:15:42.032Z,200
2017-08-26T07:16:56.053Z,195
2017-08-26T07:18:10.000Z,190
2017-08-26T07:19:28.286Z,190
2017-08-26T07:20:45.911Z,185
2017-08-26T07:22:04.251Z,180
2017-08-26T07:23:19.979Z,180
2017-08-26T07:24:35.225Z,195
2017-08-26T07:25:49.222Z,195
2017-08-26T07:27:03.194Z,190
2017-08-26T07:28:17.618Z,195
2017-08-26T07:29:55.818Z,200
2017-08-26T07:31:29.972Z,195
2017-08-26T07:32:43.700Z,185
2017-08-26T07:33:57.522Z,190
2017-08-26T07:35:11.346Z,190
2017-08-26T07:36:24.969Z,200
2017-08-26T07:37:59.602Z,195
2017-08-26T07:39:13.863Z,195
2017-08-26T07:40:27.493Z,210
2017-08-26T07:41:51.454Z,210
2017-08-26T07:43:05.332Z,210
2017-08-26T07:44:34.070Z,215
2017-08-26T07:45:48.440Z,215
2017-08-26T07:47:02.316Z,210
2017-08-26T07:48:16.804Z,215
2017-08-26T07:49:30.932Z,215
2017-08-26T07:50:44.564Z,220
2017-08-26T07:51:58.499Z,220
2017-08-26T07:53:12.140Z,220
2017-08-26T07:54:26.206Z,215
2017-08-26T07:55:40.184Z,215
2017-08-26T07:56:54.020Z,205
2017-08-26T07:58:07.666Z,185
2017-08-26T07:59:31.623Z,165
2017-08-26T08:00:45.659Z,180
2017-08-26T08:01:59.954Z,210
2017-08-26T08:03:13.534Z,215
2017-08-26T08:04:27.398Z,220
2017-08-26T08:05:41.290Z,200
2017-08-26T08:06:55.200Z,195
2017-08-26T08:08:08.872Z,170
2017-08-26T08:09:22.789Z,155
2017-08-26T08:10:37.396Z,150
2017-08-26T08:11:51.663Z,195
2017-08-26T08:13:05.627Z,195
2017-08-26T08:14:45.742Z,205
2017-08-26T08:15:59.957Z,210
2017-08-26T08:17:13.592Z,210
2017-08-26T08:18:27.446Z,215
2017-08-26T08:19:41.042Z,215
2017-08-26T08:20:55.132Z,215
2017-08-26T08:22:08.737Z,220
2017-08-26T08:23:22.909Z,220
2017-08-26T08:24:36.648Z,220
2017-08-26T08:25:50.500Z,225
2017-08-26T08:27:04.402Z,225
2017-08-26T08:28:18.274Z,225
2017-08-26T08:29:31.884Z,225
2017-08-26T08:30:45.890Z,225
2017-08-26T08:32:00.012Z,220
2017-08-26T08:34:01.606Z,225
2017-08-26T08:35:54.685Z,230
2017-08-26T08:37:08.505Z,230
2017-08-26T08:38:22.159Z,235
2017-08-26T08:40:11.424Z,250
2017-08-26T08:41:25.263Z,255
2017-08-26T08:42:38.862Z,250
2017-08-26T08:44:17.530Z,235
2017-08-26T08:45:31.316Z,225
2017-08-26T08:46:44.985Z,225
2017-08-26T08:47:58.906Z,225
2017-08-26T08:49:12.918Z,230
2017-08-26T08:50:27.189Z,225
2017-08-26T08:51:40.937Z,220
2017-08-26T08:52:55.861Z,225
2017-08-26T08:54:16.896Z,225
2017-08-26T08:55:53.131Z,215
2017-08-26T08:57:06.995Z,210
2017-08-26T08:58:21.513Z,220
2017-08-26T08:59:57.686Z,210
2017-08-26T09:01:11.516Z,220
2017-08-26T09:02:25.850Z,230
2017-08-26T09:03:59.346Z,225
2017-08-26T09:05:13.030Z,215
2017-08-26T09:06:26.616Z,205
2017-08-26T09:08:02.531Z,200
2017-08-26T09:09:25.505Z,210
2017-08-26T09:10:39.342Z,230
2017-08-26T09:11:53.434Z,215
2017-08-26T09:13:07.203Z,210
2017-08-26T09:15:30.539Z,230
2017-08-26T09:16:44.326Z,230
2017-08-26T09:17:58.304Z,235
2017-08-26T09:19:12.063Z,225
2017-08-26T09:20:25.900Z,215
2017-08-26T09:21:39.574Z,240
2017-08-26T09:22:53.805Z,225
2017-08-26T09:24:08.219Z,230
2017-08-26T09:25:21.958Z,245
2017-08-26T09:26:35.588Z,240
2017-08-26T09:27:49.939Z,250
2017-08-26T09:29:05.316Z,250
2017-08-26T09:30:19.100Z,255
2017-08-26T09:31:32.865Z,250
2017-08-26T09:32:48.406Z,245
2017-08-26T09:34:13.319Z,250
2017-08-26T09:35:33.684Z,240
2017-08-26T09:36:52.783Z,225
2017-08-26T09:38:06.801Z,230
2017-08-26T09:39:20.489Z,245
2017-08-26T09:40:34.420Z,245
2017-08-26T09:41:48.102Z,245
2017-08-26T09:43:01.872Z,235
2017-08-26T09:44:15.466Z,240
2017-08-26T09:45:29.424Z,225
2017-08-26T09:46:43.382Z,235
2017-08-26T09:47:57.011Z,225
2017-08-26T09:49:57.436Z,230
2017-08-26T09:51:11.448Z,210
2017-08-26T09:52:25.108Z,200
2017-08-26T09:53:38.768Z,200
2017-08-26T09:54:53.259Z,205
2017-08-26T09:56:06.862Z,205
2017-08-26T09:57:20.804Z,210
2017-08-26T09:58:34.470Z,220
2017-08-26T09:59:48.177Z,220
2017-08-26T10:01:01.806Z,220
2017-08-26T10:02:15.754Z,220
2017-08-26T10:03:29.354Z,220
2017-08-26T10:04:43.018Z,225
2017-08-26T10:05:56.882Z,220
2017-08-26T10:07:10.809Z,230
2017-08-26T10:08:24.401Z,230
2017-08-26T10:09:38.332Z,250
2017-08-26T10:10:52.172Z,225
2017-08-26T10:12:05.764Z,230
2017-08-26T10:13:19.716Z,250
2017-08-26T10:14:33.798Z,250
2017-08-26T10:15:47.786Z,220
2017-08-26T10:17:01.398Z,225
2017-08-26T10:18:15.050Z,225
2017-08-26T10:19:28.682Z,255
2017-08-26T10:20:43.224Z,240
2017-08-26T10:21:56.839Z,210
2017-08-26T10:23:10.433Z,195
2017-08-26T10:24:24.054Z,190
2017-08-26T10:25:37.628Z,185
2017-08-26T10:26:51.228Z,195
2017-08-26T10:28:04.823Z,200
2017-08-26T10:29:19.313Z,200
2017-08-26T10:30:33.454Z,235
2017-08-26T10:31:47.109Z,200
2017-08-26T10:33:00.761Z,195
2017-08-26T10:34:14.349Z,200
2017-08-26T10:35:27.956Z,195
2017-08-26T10:36:41.611Z,200
2017-08-26T10:37:55.201Z,190
2017-08-26T10:39:08.818Z,190
2017-08-26T10:40:22.638Z,195
2017-08-26T10:41:36.355Z,190
2017-08-26T10:42:50.008Z,195
2017-08-26T10:44:03.691Z,195
2017-08-26T10:45:17.730Z,200
2017-08-26T10:46:31.353Z,220
2017-08-26T10:47:45.519Z,250
2017-08-26T10:49:00.090Z,270
2017-08-26T10:50:13.991Z,265
2017-08-26T10:51:27.623Z,260
2017-08-26T10:52:41.735Z,260
2017-08-26T10:53:55.455Z,270
2017-08-26T10:55:09.424Z,275
2017-08-26T10:56:23.197Z,260
2017-08-26T10:57:37.036Z,245
2017-08-26T10:58:51.096Z,230
2017-08-26T11:00:04.766Z,210
2017-08-26T11:01:18.854Z,210
2017-08-26T11:02:32.820Z,220
2017-08-26T11:03:46.625Z,220
2017-08-26T11:05:00.527Z,210
2017-08-26T11:06:14.144Z,205
2017-08-26T11:07:28.149Z,195
2017-08-26T11:08:41.741Z,195
2017-08-26T11:09:55.358Z,205
2017-08-26T11:11:09.302Z,205
2017-08-26T11:12:23.137Z,200
2017-08-26T11:13:37.512Z,195
2017-08-26T11:15:48.917Z,185
2017-08-26T11:17:03.136Z,185
2017-08-26T11:18:17.085Z,180
2017-08-26T11:19:30.753Z,175
2017-08-26T11:20:44.599Z,185
2017-08-26T11:21:58.260Z,185
2017-08-26T11:23:13.579Z,185
2017-08-26T11:24:27.289Z,190
2017-08-26T11:25:41.722Z,185
2017-08-26T11:26:55.820Z,185
2017-08-26T11:28:09.565Z,185
2017-08-26T11:29:23.644Z,185
2017-08-26T11:30:37.461Z,185
2017-08-26T11:31:51.049Z,180
2017-08-26T11:33:04.995Z,170
2017-08-26T11:34:18.726Z,170
2017-08-26T11:35:32.689Z,175
2017-08-26T11:36:47.097Z,180
2017-08-26T11:38:00.812Z,175
2017-08-26T11:42:56.649Z,160
2017-08-26T11:44:10.919Z,160
2017-08-26T11:45:24.521Z,165
2017-08-26T11:46:38.147Z,170
2017-08-26T11:47:51.827Z,170
2017-08-26T11:49:05.514Z,175
2017-08-26T11:50:19.418Z,175
2017-08-26T11:51:33.058Z,175
2017-08-26T11:52:46.774Z,175
2017-08-26T11:54:00.465Z,175
2017-08-26T11:55:14.062Z,170
2017-08-26T11:56:28.031Z,170
2017-08-26T11:57:41.920Z,160
2017-08-26T11:58:55.673Z,160
2017-08-26T12:00:10.008Z,155
2017-08-26T12:01:24.042Z,155
2017-08-26T12:02:38.515Z,155
2017-08-26T12:03:52.144Z,155
2017-08-26T12:05:05.847Z,155
2017-08-26T12:06:19.507Z,160
2017-08-26T12:07:33.093Z,165
2017-08-26T12:08:47.451Z,165
2017-08-26T12:10:01.105Z,165
2017-08-26T12:11:14.799Z,165
2017-08-26T12:12:28.432Z,165
2017-08-26T12:13:42.271Z,165
2017-08-26T12:14:56.200Z,165
2017-08-26T12:16:10.379Z,165
2017-08-26T12:17:24.224Z,165
2017-08-26T12:18:38.447Z,165
2017-08-26T12:19:52.239Z,165
2017-08-26T12:21:06.501Z,165
2017-08-26T12:22:20.666Z,165
2017-08-26T12:23:34.464Z,165
2017-08-26T12:24:48.083Z,165
2017-08-26T12:26:01.824Z,165
2017-08-26T12:27:16.805Z,160
2017-08-26T12:28:30.976Z,155
2017-08-26T12:29:44.723Z,145
2017-08-26T12:30:58.555Z,150
2017-08-26T12:32:12.291Z,150
2017-08-26T12:33:26.185Z,155
2017-08-26T12:34:39.932Z,160
2017-08-26T12:35:53.935Z,165
2017-08-26T12:37:07.704Z,170
2017-08-26T12:38:21.861Z,170
2017-08-26T12:39:36.340Z,170
2017-08-26T12:40:50.047Z,170
2017-08-26T12:42:04.401Z,170
2017-08-26T12:43:18.129Z,160
2017-08-26T12:44:32.093Z,160
2017-08-26T12:45:46.090Z,165
2017-08-26T12:47:00.076Z,165
2017-08-26T12:48:13.880Z,165
2017-08-26T12:49:27.900Z,170
2017-08-26T12:50:41.525Z,170
2017-08-26T12:51:55.562Z,175
2017-08-26T12:53:09.262Z,180
2017-08-26T12:54:22.915Z,180
2017-08-26T12:55:36.661Z,175
2017-08-26T12:56:50.298Z,175
2017-08-26T12:58:04.383Z,175
2017-08-26T12:59:18.019Z,175
2017-08-26T13:00:32.273Z,175
2017-08-26T13:01:46.002Z,175
2017-08-26T13:02:59.891Z,170
2017-08-26T13:04:39.578Z,165
2017-08-26T13:05:53.280Z,165
2017-08-26T13:07:06.859Z,160
2017-08-26T13:08:20.554Z,155
2017-08-26T13:09:34.298Z,150
2017-08-26T13:10:48.260Z,150
2017-08-26T13:12:02.012Z,145
2017-08-26T13:13:16.125Z,145
2017-08-26T13:14:29.888Z,145
2017-08-26T13:15:43.813Z,140
2017-08-26T13:16:57.748Z,145
2017-08-26T13:18:11.348Z,145
2017-08-26T13:19:24.983Z,150
2017-08-26T13:20:38.959Z,150
2017-08-26T13:21:52.640Z,145
2017-08-26T13:23:06.903Z,145
2017-08-26T13:24:20.683Z,145
2017-08-26T13:25:34.398Z,140
2017-08-26T13:26:49.624Z,140
2017-08-26T13:28:07.330Z,140
2017-08-26T13:29:27.897Z,140
2017-08-26T13:30:50.809Z,140
2017-08-26T13:32:12.120Z,145
2017-08-26T13:33:34.111Z,140
2017-08-26T13:34:59.323Z,145
2017-08-26T13:36:23.793Z,140
2017-08-26T13:37:47.459Z,140
2017-08-26T13:39:11.152Z,140
2017-08-26T13:40:37.256Z,140
2017-08-26T13:42:02.720Z,140
2017-08-26T13:43:27.379Z,140
2017-08-26T13:44:47.652Z,150
2017-08-26T13:46:12.119Z,145
2017-08-26T13:47:33.100Z,150
2017-08-26T13:48:51.051Z,150
2017-08-26T13:50:04.685Z,155
2017-08-26T13:51:18.720Z,160
2017-08-26T13:52:32.348Z,165
2017-08-26T13:53:45.952Z,165
2017-08-26T13:54:59.935Z,160
2017-08-26T13:56:13.547Z,150
2017-08-26T13:57:28.252Z,150
2017-08-26T13:58:42.049Z,150
2017-08-26T13:59:55.688Z,160
2017-08-26T14:01:09.640Z,170
2017-08-26T14:02:23.645Z,175
2017-08-26T14:03:37.615Z,170
2017-08-26T14:04:51.878Z,170
2017-08-26T14:06:05.840Z,175
2017-08-26T14:07:19.559Z,165
2017-08-26T14:08:33.688Z,170
2017-08-26T14:09:48.122Z,170
2017-08-26T14:11:02.074Z,190
2017-08-26T14:12:16.176Z,215
2017-08-26T14:13:29.922Z,215
2017-08-26T14:14:43.524Z,210
2017-08-26T14:15:57.461Z,200
2017-08-26T14:17:17.817Z,195
2017-08-26T14:18:32.090Z,200
2017-08-26T14:19:45.764Z,200
2017-08-26T14:20:59.807Z,200
2017-08-26T14:22:14.033Z,200
2017-08-26T14:23:28.169Z,195
2017-08-26T14:24:42.231Z,185
2017-08-26T14:25:56.224Z,180
2017-08-26T14:27:10.027Z,175
2017-08-26T14:28:23.638Z,180
2017-08-26T14:29:37.341Z,170
2017-08-26T14:30:51.275Z,170
2017-08-26T14:32:04.881Z,170
2017-08-26T14:33:18.627Z,160
2017-08-26T14:34:32.563Z,150
2017-08-26T14:35:46.455Z,155
2017-08-26T14:37:00.093Z,150
2017-08-26T14:38:14.008Z,145
2017-08-26T14:39:27.688Z,165
2017-08-26T14:40:42.457Z,170
2017-08-26T14:41:56.312Z,160
2017-08-26T14:43:09.955Z,165
2017-08-26T14:44:24.242Z,165
2017-08-26T14:45:38.175Z,170
2017-08-26T14:47:17.868Z,175
2017-08-26T14:48:31.840Z,165
2017-08-26T14:49:45.511Z,160
2017-08-26T14:50:59.148Z,165
2017-08-26T14:52:12.832Z,160
2017-08-26T14:53:26.749Z,160
2017-08-26T14:54:40.483Z,145
2017-08-26T14:55:54.121Z,135
2017-08-26T14:57:08.738Z,120
2017-08-26T14:58:22.802Z,140
2017-08-26T14:59:40.528Z,145
2017-08-26T15:00:54.239Z,125
2017-08-26T15:02:08.257Z,135
2017-08-26T15:03:22.078Z,140
2017-08-26T15:04:36.683Z,160
2017-08-26T15:05:50.705Z,145
2017-08-26T15:07:04.693Z,125
2017-08-26T15:08:18.399Z,125
2017-08-26T15:09:32.049Z,125
2017-08-26T15:10:45.780Z,125
2017-08-26T15:11:59.715Z,130
2017-08-26T15:13:14.059Z,160
2017-08-26T15:14:28.211Z,190
2017-08-26T15:15:41.842Z,180
2017-08-26T15:16:55.843Z,165
2017-08-26T15:18:09.743Z,150
2017-08-26T15:19:23.480Z,145
2017-08-26T15:20:38.180Z,145
2017-08-26T15:22:46.408Z,140
2017-08-26T15:24:00.479Z,135
2017-08-26T15:25:14.188Z,125
2017-08-26T15:26:27.818Z,125
2017-08-26T15:27:41.492Z,120
2017-08-26T15:28:55.218Z,120
2017-08-26T15:30:09.248Z,115
2017-08-26T15:31:22.925Z,115
2017-08-26T15:32:36.705Z,115
2017-08-26T15:33:51.153Z,110
2017-08-26T15:35:05.070Z,110
2017-08-26T15:36:19.797Z,110
2017-08-26T15:37:33.498Z,110
2017-08-26T15:38:47.736Z,105
2017-08-26T15:40:01.975Z,105
2017-08-26T15:41:15.953Z,105
2017-08-26T15:42:29.943Z,105
2017-08-26T15:43:43.768Z,105
2017-08-26T15:44:57.570Z,105
2017-08-26T15:46:11.427Z,105
2017-08-26T15:47:25.208Z,105
2017-08-26T15:48:39.885Z,105
2017-08-26T15:49:53.589Z,105
2017-08-26T15:51:07.472Z,105
2017-08-26T15:52:21.577Z,100
2017-08-26T15:53:35.280Z,100
2017-08-26T15:54:49.652Z,100
2017-08-26T15:56:04.201Z,100
2017-08-26T15:57:18.792Z,100
2017-08-26T15:58:32.616Z,100
2017-08-26T15:59:46.630Z,95
2017-08-26T16:01:00.689Z,95
2017-08-26T16:02:14.308Z,95
2017-08-26T16:03:28.844Z,95
2017-08-26T16:04:42.698Z,95
2017-08-26T16:05:56.784Z,95
2017-08-26T16:07:10.947Z,90
2017-08-26T16:08:24.576Z,90
2017-08-26T16:09:38.595Z,90
2017-08-26T16:10:53.107Z,90
2017-08-26T16:12:07.425Z,90
2017-08-26T16:13:21.371Z,90
2017-08-26T16:14:35.050Z,90
2017-08-26T16:15:48.668Z,85
2017-08-26T16:17:02.278Z,85
2017-08-26T16:18:16.207Z,85
2017-08-26T16:19:30.026Z,85
2017-08-26T16:20:44.244Z,85
2017-08-26T16:21:58.124Z,85
2017-08-26T16:23:11.819Z,80
2017-08-26T16:24:25.644Z,80
2017-08-26T16:25:39.539Z,80
2017-08-26T16:26:53.272Z,80
2017-08-26T16:28:22.281Z,75
2017-08-26T16:29:36.300Z,75
2017-08-26T16:30:50.323Z,75
2017-08-26T16:32:05.243Z,70
2017-08-26T16:33:19.784Z,70
2017-08-26T16:34:33.409Z,70
2017-08-26T16:35:47.221Z,65
2017-08-26T16:37:00.936Z,65
2017-08-26T16:38:15.337Z,65
2017-08-26T16:39:29.026Z,60
2017-08-26T16:40:42.732Z,60
2017-08-26T16:41:56.431Z,60
2017-08-26T16:43:10.383Z,60
2017-08-26T16:44:26.238Z,55
2017-08-26T16:45:40.494Z,55
2017-08-26T16:46:54.160Z,55
2017-08-26T16:48:07.970Z,55
2017-08-26T16:49:21.715Z,55
2017-08-26T16:50:35.660Z,55
2017-08-26T16:51:49.446Z,55
2017-08-26T16:53:03.592Z,55
2017-08-26T16:54:17.352Z,50
2017-08-26T16:55:31.581Z,50
2017-08-26T16:56:45.640Z,50
2017-08-26T16:57:59.375Z,50
2017-08-26T16:59:13.145Z,50
2017-08-26T17:00:27.739Z,50
2017-08-26T17:01:41.720Z,50
2017-08-26T17:03:08.548Z,50
2017-08-26T17:04:22.203Z,50
2017-08-26T17:05:35.807Z,50
2017-08-26T17:06:49.425Z,50
2017-08-26T17:08:03.361Z,50
2017-08-26T17:09:17.325Z,50
2017-08-26T17:10:30.936Z,50
2017-08-26T17:11:45.038Z,45
2017-08-26T17:12:59.303Z,45
2017-08-26T17:14:12.950Z,45
2017-08-26T17:15:27.170Z,45
2017-08-26T17:16:40.846Z,45
2017-08-26T17:17:54.444Z,40
2017-08-26T17:19:08.625Z,40
2017-08-26T17:20:22.278Z,40
2017-08-26T17:21:35.871Z,40
2017-08-26T17:22:49.487Z,35
2017-08-26T17:24:03.302Z,35
2017-08-26T17:25:17.317Z,35
2017-08-26T17:26:30.924Z,35
2017-08-26T17:27:44.685Z,35
2017-08-26T17:28:58.267Z,30
2017-08-26T17:30:11.952Z,30
2017-08-26T17:31:25.710Z,30
2017-08-26T17:32:39.635Z,30
2017-08-26T17:33:53.692Z,30
2017-08-26T17:35:07.343Z,30
2017-08-26T17:36:20.932Z,25
2017-08-26T17:37:34.547Z,25
2017-08-26T17:38:48.149Z,25
2017-08-26T17:40:02.511Z,25
2017-08-26T17:41:16.251Z,25
2017-08-26T17:42:29.855Z,20
2017-08-26T17:43:43.466Z,20
2017-08-26T17:44:57.073Z,20
2017-08-26T17:46:12.351Z,20
2017-08-26T17:47:25.952Z,20
2017-08-26T17:48:39.536Z,20
2017-08-26T17:49:53.147Z,20
2017-08-26T17:51:06.791Z,15
2017-08-26T17:52:20.864Z,15
2017-08-26T17:53:34.458Z,15
2017-08-26T17:54:48.040Z,15
2017-08-26T17:56:01.623Z,15
2017-08-26T17:57:15.961Z,15
2017-08-26T17:58:30.556Z,15
2017-08-26T17:59:44.479Z,15
2017-08-26T18:00:58.425Z,10
2017-08-26T18:02:12.107Z,10
2017-08-26T18:03:25.755Z,10
2017-08-26T18:04:39.375Z,10
2017-08-26T18:06:39.756Z,10
2017-08-26T18:07:53.402Z,5
2017-08-26T18:09:07.017Z,5
2017-08-26T18:10:20.612Z,5
2017-08-26T18:11:34.555Z,5
2017-08-26T18:12:48.198Z,5
2017-08-26T18:14:01.803Z,5
2017-08-26T18:15:15.389Z,5
2017-08-26T18:16:29.058Z,5
2017-08-26T18:17:42.958Z,5
2017-08-26T18:18:56.545Z,5
2017-08-26T18:20:11.786Z,0
2017-08-26T18:21:26.016Z,0
2017-08-26T18:22:39.623Z,0
2017-08-26T18:23:53.218Z,0
2017-08-26T18:25:06.953Z,0
2017-08-26T18:26:20.685Z,0
2017-08-26T18:27:34.328Z,0
2017-08-26T18:28:47.924Z,0
2017-08-26T18:30:02.016Z,0
2017-08-26T18:31:16.774Z,0
2017-08-26T18:32:30.524Z,0
2017-08-26T18:33:44.602Z,0
2017-08-26T18:34:58.218Z,0
2017-08-26T18:36:11.823Z,0
2017-08-26T18:37:26.021Z,0
2017-08-26T18:38:39.606Z,0
2017-08-26T18:39:53.248Z,0
2017-08-26T18:41:07.169Z,0
2017-08-26T18:42:20.861Z,0
2017-08-26T18:43:34.486Z,0
2017-08-26T18:44:48.305Z,0
2017-08-26T18:46:02.225Z,0
2017-08-26T18:47:16.326Z,0
2017-08-26T18:48:29.981Z,0
2017-08-26T18:49:43.886Z,0
2017-08-26T18:50:57.484Z,0
2017-08-26T18:52:11.089Z,0
2017-08-26T18:53:25.277Z,0
2017-08-26T18:54:38.890Z,0
2017-08-26T18:55:52.490Z,0
2017-08-26T18:57:06.440Z,0
2017-08-26T18:58:21.081Z,0
2017-08-26T18:59:34.707Z,0
2017-08-26T19:00:48.639Z,0
2017-08-26T19:02:02.259Z,0
2017-08-26T19:03:15.944Z,0
2017-08-26T19:04:29.557Z,0
2017-08-26T19:05:43.482Z,0
2017-08-26T19:06:57.833Z,0
2017-08-26T19:08:20.062Z,0
2017-08-26T19:09:43.516Z,0
2017-08-26T19:11:05.889Z,0
2017-08-26T19:12:28.892Z,0
2017-08-26T19:13:45.217Z,0
2017-08-26T19:19:24.823Z,0
2017-08-26T19:20:38.728Z,0
2017-08-26T19:21:52.345Z,0
2017-08-26T19:23:06.281Z,0
2017-08-26T19:24:19.915Z,0
2017-08-26T19:25:33.557Z,0
2017-08-26T19:26:47.151Z,0
2017-08-26T19:28:00.932Z,0
2017-08-26T19:29:14.539Z,0
2017-08-26T19:30:28.416Z,0
2017-08-26T19:31:41.999Z,0
2017-08-26T19:32:55.892Z,0
2017-08-26T19:34:09.470Z,0
2017-08-26T19:35:23.311Z,0
2017-08-26T19:36:37.301Z,0
2017-08-26T19:37:50.946Z,0
2017-08-26T19:39:04.883Z,0
2017-08-26T19:40:18.933Z,0
2017-08-26T19:41:32.880Z,0
2017-08-26T19:42:46.773Z,0
2017-08-26T19:44:00.923Z,0
2017-08-26T19:45:14.562Z,0
2017-08-26T19:46:28.184Z,0
2017-08-26T19:47:41.778Z,0
2017-08-26T19:48:55.681Z,0
2017-08-26T19:50:09.332Z,0
2017-08-26T19:51:23.255Z,0
2017-08-26T19:52:37.208Z,0
2017-08-26T19:53:50.805Z,0
2017-08-26T19:55:04.747Z,0
2017-08-26T19:56:18.390Z,0
2017-08-26T19:57:32.287Z,0
2017-08-26T19:58:45.936Z,0
2017-08-26T19:59:59.561Z,0
2017-08-26T20:01:13.922Z,0
2017-08-26T20:02:27.548Z,0
2017-08-26T20:03:42.860Z,0
2017-08-26T20:04:56.473Z,0
2017-08-26T20:06:10.065Z,0
2017-08-26T20:07:24.200Z,0
2017-08-26T20:08:37.777Z,0
2017-08-26T20:09:51.401Z,0
2017-08-26T20:11:05.008Z,0
2017-08-26T20:12:18.604Z,0
2017-08-26T20:13:32.212Z,0
2017-08-26T20:14:45.802Z,0
2017-08-26T20:15:59.402Z,0
2017-08-26T20:17:12.980Z,0
2017-08-26T20:18:26.779Z,0
2017-08-26T20:19:40.669Z,0
2017-08-26T20:20:54.242Z,0
2017-08-26T20:22:07.985Z,0
2017-08-26T20:23:21.578Z,0
2017-08-26T20:24:35.508Z,0
2017-08-26T20:25:49.423Z,0
2017-08-26T20:27:03.207Z,0
2017-08-26T20:28:17.570Z,0
2017-08-26T20:29:31.198Z,0
2017-08-26T20:30:45.097Z,0
2017-08-26T20:31:58.980Z,0
2017-08-26T20:33:12.627Z,0
2017-08-26T20:34:26.439Z,0
2017-08-26T20:35:40.736Z,0
2017-08-26T20:36:54.481Z,0
2017-08-26T20:38:09.242Z,0
2017-08-26T20:39:22.816Z,0
2017-08-26T20:40:36.730Z,0
2017-08-26T20:41:50.317Z,0
2017-08-26T20:43:04.043Z,0
2017-08-26T20:44:18.771Z,0
2017-08-26T20:45:32.692Z,0
2017-08-26T20:46:46.540Z,0
2017-08-26T20:48:00.156Z,0
2017-08-26T20:49:13.906Z,0
2017-08-26T20:50:27.800Z,0
2017-08-26T20:51:41.363Z,0
2017-08-26T20:52:54.973Z,0
2017-08-26T20:54:08.950Z,0
2017-08-26T20:55:22.671Z,0
2017-08-26T20:56:36.599Z,0
2017-08-26T20:57:50.200Z,0
2017-08-26T20:59:03.911Z,0
2017-08-26T21:00:17.531Z,0
2017-08-26T21:01:31.670Z,0
2017-08-26T21:02:46.975Z,0
2017-08-26T21:04:00.620Z,0
2017-08-26T21:05:14.296Z,0
2017-08-26T21:06:27.899Z,0
2017-08-26T21:07:41.812Z,0
2017-08-26T21:08:55.706Z,0
2017-08-26T21:10:09.569Z,0
2017-08-26T21:11:23.175Z,0
2017-08-26T21:12:36.788Z,0
2017-08-26T21:13:50.387Z,0
2017-08-26T21:15:04.360Z,0
2017-08-26T21:16:18.041Z,0
2017-08-26T21:17:31.987Z,0
2017-08-26T21:18:45.603Z,0
2017-08-26T21:19:59.267Z,0
2017-08-26T21:21:13.146Z,0
2017-08-26T21:22:26.737Z,0
2017-08-26T21:23:40.326Z,0
2017-08-26T21:24:54.199Z,0
2017-08-26T21:26:07.792Z,0
2017-08-26T21:27:21.916Z,0
2017-08-26T21:28:35.512Z,0
2017-08-26T21:29:49.087Z,0
2017-08-26T21:31:03.373Z,0
2017-08-26T21:32:16.970Z,0
2017-08-26T21:33:30.859Z,0
2017-08-26T21:34:44.417Z,0
2017-08-26T21:35:58.074Z,0
2017-08-26T21:37:11.896Z,0
2017-08-26T21:38:25.479Z,0
2017-08-26T21:39:39.684Z,0
2017-08-26T21:40:53.318Z,0
2017-08-26T21:42:07.719Z,0
2017-08-26T21:43:21.737Z,0
2017-08-26T21:44:35.846Z,0
2017-08-26T21:45:49.970Z,0
2017-08-26T21:47:04.021Z,0
2017-08-26T21:48:18.046Z,0
2017-08-26T21:49:32.510Z,0
2017-08-26T21:50:46.321Z,0
2017-08-26T21:52:00.220Z,0
2017-08-26T21:53:13.801Z,0
2017-08-26T21:54:27.407Z,0
2017-08-26T21:55:40.984Z,0
2017-08-26T21:56:54.894Z,0
2017-08-26T21:58:09.147Z,0
2017-08-26T21:59:22.763Z,0
2017-08-26T22:00:36.352Z,0
2017-08-26T22:01:50.003Z,0
2017-08-26T22:03:03.624Z,0
2017-08-26T22:04:17.915Z,0
2017-08-26T22:05:31.524Z,0
2017-08-26T22:06:45.546Z,0
2017-08-26T22:07:59.439Z,0
2017-08-26T22:09:13.353Z,0
2017-08-26T22:10:27.933Z,0
2017-08-26T22:11:41.805Z,0
2017-08-26T22:12:55.438Z,0
2017-08-26T22:14:09.395Z,0
2017-08-26T22:15:23.340Z,0
2017-08-26T22:16:37.575Z,0
2017-08-26T22:17:51.252Z,0
2017-08-26T22:19:05.340Z,0
2017-08-26T22:20:19.255Z,0
2017-08-26T22:21:33.611Z,0
2017-08-26T22:22:47.950Z,0
2017-08-26T22:24:01.520Z,0
2017-08-26T22:25:15.231Z,0
2017-08-26T22:26:28.920Z,0
2017-08-26T22:27:42.548Z,0
2017-08-26T22:28:56.521Z,0
2017-08-26T22:30:10.301Z,0
2017-08-26T22:31:24.611Z,0
2017-08-26T22:32:38.485Z,0
2017-08-26T22:33:53.240Z,0
2017-08-26T22:35:07.527Z,0
2017-08-26T22:36:21.168Z,0
2017-08-26T22:37:35.208Z,0
2017-08-26T22:38:49.599Z,0
2017-08-26T22:40:03.270Z,0
2017-08-26T22:41:17.234Z,0
2017-08-26T22:42:30.924Z,0
2017-08-26T22:43:44.967Z,0
2017-08-26T22:44:58.626Z,0
2017-08-26T22:46:12.530Z,0
2017-08-26T22:47:26.446Z,0
2017-08-26T22:48:40.290Z,0
2017-08-26T22:49:53.908Z,0
2017-08-26T22:51:07.474Z,0
2017-08-26T22:52:21.505Z,0
2017-08-26T22:53:35.892Z,0
2017-08-26T22:54:49.838Z,0
2017-08-26T22:56:04.395Z,0
2017-08-26T22:57:18.351Z,0
2017-08-26T22:58:32.029Z,0
2017-08-26T22:59:46.299Z,0
2017-08-26T23:00:59.887Z,0
2017-08-26T23:02:13.505Z,0
2017-08-26T23:03:27.065Z,0
2017-08-26T23:04:40.731Z,0
2017-08-26T23:05:54.679Z,0
2017-08-26T23:07:08.710Z,0
2017-08-26T23:08:22.272Z,0
2017-08-26T23:09:36.016Z,0
2017-08-26T23:10:49.635Z,0
2017-08-26T23:12:03.887Z,0
2017-08-26T23:13:17.591Z,0
2017-08-26T23:14:31.253Z,0
2017-08-26T23:15:45.434Z,0
2017-08-26T23:16:59.427Z,0
2017-08-26T23:18:13.296Z,0
2017-08-26T23:19:27.278Z,0
2017-08-26T23:20:41.282Z,0